Oakhill, Kansas
Current Conditions -  °F | °C
As of 11:55 AM on Saturday 20 Dec 2014 (Local Time) from KCNK Reporting Station
Haze Haze  
Wind Chill: 35°   Ceiling: Unl
Heat Index: 35°   Visibility: 6mi
Dew Point: 31°   Wind: 3mph
Humidity: 85%   Direction: 230°SW
Pressure: 30.08"   Gusts: NA
Location:  39.3117°N, 97.253°W
Report Text: KCNK 201755Z AUTO 23003KT 6SM BR CLR 02/M01 A3008 RMK AO2 SLP196 T00171006 10017 21028 58005 $
Loading
Personal Weather Stations






























Interactive Weather Map New forecast layout! Learn more

10-Day Weather Forecast

Advertisements
Track Severe Weather on mobile